sensor_id;sensor_type;location;lat;lon;timestamp;P1;durP1;ratioP1;P2;durP2;ratioP2
75616;SDS011;64200;55.426;37.758;2023-07-28T00:00:00;11.07;;;8.80;;
75616;SDS011;64200;55.426;37.758;2023-07-28T00:05:01;14.73;;;9.93;;
75616;SDS011;64200;55.426;37.758;2023-07-28T00:10:02;11.93;;;8.65;;
75616;SDS011;64200;55.426;37.758;2023-07-28T00:15:02;10.65;;;8.13;;
75616;SDS011;64200;55.426;37.758;2023-07-28T00:20:03;11.82;;;8.45;;
75616;SDS011;64200;55.426;37.758;2023-07-28T00:25:04;12.23;;;10.02;;
75616;SDS011;64200;55.426;37.758;2023-07-28T00:30:05;12.25;;;8.75;;
75616;SDS011;64200;55.426;37.758;2023-07-28T00:35:06;12.90;;;9.32;;
75616;SDS011;64200;55.426;37.758;2023-07-28T00:40:07;12.30;;;6.97;;
75616;SDS011;64200;55.426;37.758;2023-07-28T00:45:08;14.38;;;10.07;;
75616;SDS011;64200;55.426;37.758;2023-07-28T00:50:09;12.10;;;8.13;;
75616;SDS011;64200;55.426;37.758;2023-07-28T00:55:10;11.63;;;9.43;;
75616;SDS011;64200;55.426;37.758;2023-07-28T01:00:11;12.90;;;8.90;;
75616;SDS011;64200;55.426;37.758;2023-07-28T01:05:12;13.80;;;9.70;;
75616;SDS011;64200;55.426;37.758;2023-07-28T01:10:22;11.00;;;8.27;;
75616;SDS011;64200;55.426;37.758;2023-07-28T01:15:26;14.35;;;8.50;;
75616;SDS011;64200;55.426;37.758;2023-07-28T01:20:28;14.27;;;8.40;;
75616;SDS011;64200;55.426;37.758;2023-07-28T01:30:47;12.38;;;8.48;;
75616;SDS011;64200;55.426;37.758;2023-07-28T01:35:48;18.15;;;10.93;;
75616;SDS011;64200;55.426;37.758;2023-07-28T01:40:48;12.68;;;8.60;;
75616;SDS011;64200;55.426;37.758;2023-07-28T01:45:49;11.07;;;8.60;;
75616;SDS011;64200;55.426;37.758;2023-07-28T01:50:49;12.82;;;8.95;;
75616;SDS011;64200;55.426;37.758;2023-07-28T01:55:50;11.47;;;8.63;;
75616;SDS011;64200;55.426;37.758;2023-07-28T02:00:51;15.02;;;9.63;;
75616;SDS011;64200;55.426;37.758;2023-07-28T02:05:51;14.43;;;8.57;;
75616;SDS011;64200;55.426;37.758;2023-07-28T02:10:53;13.43;;;9.02;;
75616;SDS011;64200;55.426;37.758;2023-07-28T02:15:54;13.65;;;8.85;;
75616;SDS011;64200;55.426;37.758;2023-07-28T02:20:54;16.33;;;9.25;;
75616;SDS011;64200;55.426;37.758;2023-07-28T02:25:55;15.98;;;9.35;;
75616;SDS011;64200;55.426;37.758;2023-07-28T02:30:55;12.63;;;8.95;;
75616;SDS011;64200;55.426;37.758;2023-07-28T02:35:56;11.30;;;8.88;;
75616;SDS011;64200;55.426;37.758;2023-07-28T02:40:57;13.05;;;8.45;;
75616;SDS011;64200;55.426;37.758;2023-07-28T02:45:57;11.43;;;8.95;;
75616;SDS011;64200;55.426;37.758;2023-07-28T02:50:58;15.75;;;9.38;;
75616;SDS011;64200;55.426;37.758;2023-07-28T02:55:58;13.98;;;11.30;;
75616;SDS011;64200;55.426;37.758;2023-07-28T03:00:59;14.75;;;10.60;;
75616;SDS011;64200;55.426;37.758;2023-07-28T03:06:00;15.13;;;9.63;;
75616;SDS011;64200;55.426;37.758;2023-07-28T03:11:00;13.80;;;9.32;;
75616;SDS011;64200;55.426;37.758;2023-07-28T03:16:04;18.48;;;8.82;;
75616;SDS011;64200;55.426;37.758;2023-07-28T03:21:04;14.88;;;8.65;;
75616;SDS011;64200;55.426;37.758;2023-07-28T03:26:05;13.02;;;8.80;;
75616;SDS011;64200;55.426;37.758;2023-07-28T03:31:05;15.40;;;9.23;;
75616;SDS011;64200;55.426;37.758;2023-07-28T03:36:06;11.07;;;8.38;;
75616;SDS011;64200;55.426;37.758;2023-07-28T03:41:06;13.73;;;8.43;;
75616;SDS011;64200;55.426;37.758;2023-07-28T03:46:08;17.45;;;9.30;;
75616;SDS011;64200;55.426;37.758;2023-07-28T03:51:08;10.75;;;7.10;;
75616;SDS011;64200;55.426;37.758;2023-07-28T03:56:09;5.63;;;3.55;;
75616;SDS011;64200;55.426;37.758;2023-07-28T04:01:09;5.37;;;3.83;;
75616;SDS011;64200;55.426;37.758;2023-07-28T04:06:11;6.03;;;4.77;;
75616;SDS011;64200;55.426;37.758;2023-07-28T04:11:12;9.20;;;4.93;;
75616;SDS011;64200;55.426;37.758;2023-07-28T04:16:14;5.85;;;3.95;;
75616;SDS011;64200;55.426;37.758;2023-07-28T04:21:14;8.00;;;4.60;;
75616;SDS011;64200;55.426;37.758;2023-07-28T04:26:16;7.93;;;4.90;;
75616;SDS011;64200;55.426;37.758;2023-07-28T04:31:17;9.45;;;5.88;;
75616;SDS011;64200;55.426;37.758;2023-07-28T04:36:17;11.10;;;6.47;;
75616;SDS011;64200;55.426;37.758;2023-07-28T04:41:18;8.45;;;5.20;;
75616;SDS011;64200;55.426;37.758;2023-07-28T04:46:20;9.38;;;5.93;;
75616;SDS011;64200;55.426;37.758;2023-07-28T04:51:20;9.60;;;5.80;;
75616;SDS011;64200;55.426;37.758;2023-07-28T04:56:21;11.07;;;6.87;;
75616;SDS011;64200;55.426;37.758;2023-07-28T05:01:21;7.43;;;5.32;;
75616;SDS011;64200;55.426;37.758;2023-07-28T05:06:22;7.13;;;5.20;;
75616;SDS011;64200;55.426;37.758;2023-07-28T05:11:22;7.10;;;3.10;;
75616;SDS011;64200;55.426;37.758;2023-07-28T05:16:23;4.68;;;3.10;;
75616;SDS011;64200;55.426;37.758;2023-07-28T05:21:23;3.43;;;2.50;;
75616;SDS011;64200;55.426;37.758;2023-07-28T05:26:25;4.47;;;2.63;;
75616;SDS011;64200;55.426;37.758;2023-07-28T05:31:26;4.10;;;2.70;;
75616;SDS011;64200;55.426;37.758;2023-07-28T05:36:26;5.77;;;2.50;;
75616;SDS011;64200;55.426;37.758;2023-07-28T05:41:27;4.22;;;2.28;;
75616;SDS011;64200;55.426;37.758;2023-07-28T05:46:28;3.67;;;2.22;;
75616;SDS011;64200;55.426;37.758;2023-07-28T05:51:28;3.70;;;1.88;;
75616;SDS011;64200;55.426;37.758;2023-07-28T05:56:29;6.13;;;1.70;;
75616;SDS011;64200;55.426;37.758;2023-07-28T06:01:30;4.05;;;2.67;;
75616;SDS011;64200;55.426;37.758;2023-07-28T06:06:30;2.83;;;2.27;;
75616;SDS011;64200;55.426;37.758;2023-07-28T06:11:30;3.45;;;2.22;;
75616;SDS011;64200;55.426;37.758;2023-07-28T06:16:31;3.47;;;2.17;;
75616;SDS011;64200;55.426;37.758;2023-07-28T06:21:32;2.75;;;1.70;;
75616;SDS011;64200;55.426;37.758;2023-07-28T06:26:32;2.50;;;2.10;;
75616;SDS011;64200;55.426;37.758;2023-07-28T06:31:33;3.28;;;2.08;;
75616;SDS011;64200;55.426;37.758;2023-07-28T06:36:33;4.87;;;2.10;;
75616;SDS011;64200;55.426;37.758;2023-07-28T06:41:34;6.53;;;2.53;;
75616;SDS011;64200;55.426;37.758;2023-07-28T06:46:34;6.90;;;2.60;;
75616;SDS011;64200;55.426;37.758;2023-07-28T06:51:35;3.20;;;2.03;;
75616;SDS011;64200;55.426;37.758;2023-07-28T06:56:35;4.78;;;2.13;;
75616;SDS011;64200;55.426;37.758;2023-07-28T07:01:36;5.07;;;2.90;;
75616;SDS011;64200;55.426;37.758;2023-07-28T07:06:36;4.17;;;2.40;;
75616;SDS011;64200;55.426;37.758;2023-07-28T07:11:38;7.55;;;2.78;;
75616;SDS011;64200;55.426;37.758;2023-07-28T07:16:40;4.05;;;2.65;;
75616;SDS011;64200;55.426;37.758;2023-07-28T07:21:40;5.47;;;3.00;;
75616;SDS011;64200;55.426;37.758;2023-07-28T07:26:42;3.65;;;2.67;;
75616;SDS011;64200;55.426;37.758;2023-07-28T07:31:42;4.68;;;2.60;;
75616;SDS011;64200;55.426;37.758;2023-07-28T07:36:43;5.47;;;3.10;;
75616;SDS011;64200;55.426;37.758;2023-07-28T07:41:43;4.32;;;2.47;;
75616;SDS011;64200;55.426;37.758;2023-07-28T07:46:44;3.03;;;2.25;;
75616;SDS011;64200;55.426;37.758;2023-07-28T07:51:44;3.67;;;2.25;;
75616;SDS011;64200;55.426;37.758;2023-07-28T07:56:45;5.13;;;3.03;;
75616;SDS011;64200;55.426;37.758;2023-07-28T08:01:46;3.40;;;2.20;;
75616;SDS011;64200;55.426;37.758;2023-07-28T08:06:47;4.93;;;2.50;;
75616;SDS011;64200;55.426;37.758;2023-07-28T08:11:48;4.63;;;2.72;;
75616;SDS011;64200;55.426;37.758;2023-07-28T08:16:49;3.90;;;2.25;;
75616;SDS011;64200;55.426;37.758;2023-07-28T08:21:49;6.32;;;2.80;;
75616;SDS011;64200;55.426;37.758;2023-07-28T08:26:51;4.28;;;2.05;;
75616;SDS011;64200;55.426;37.758;2023-07-28T08:31:52;5.60;;;2.40;;
75616;SDS011;64200;55.426;37.758;2023-07-28T08:36:52;5.47;;;2.50;;
75616;SDS011;64200;55.426;37.758;2023-07-28T08:42:11;4.93;;;3.05;;
75616;SDS011;64200;55.426;37.758;2023-07-28T08:47:12;4.63;;;2.95;;
75616;SDS011;64200;55.426;37.758;2023-07-28T08:52:14;6.78;;;3.47;;
75616;SDS011;64200;55.426;37.758;2023-07-28T08:57:16;4.20;;;2.42;;
75616;SDS011;64200;55.426;37.758;2023-07-28T09:02:17;4.70;;;3.65;;
75616;SDS011;64200;55.426;37.758;2023-07-28T09:07:19;7.10;;;3.67;;
75616;SDS011;64200;55.426;37.758;2023-07-28T09:12:20;4.10;;;3.23;;
75616;SDS011;64200;55.426;37.758;2023-07-28T09:17:24;5.65;;;4.00;;
75616;SDS011;64200;55.426;37.758;2023-07-28T09:22:26;5.80;;;4.30;;
75616;SDS011;64200;55.426;37.758;2023-07-28T09:27:30;6.50;;;4.30;;
75616;SDS011;64200;55.426;37.758;2023-07-28T09:32:31;8.43;;;4.10;;
75616;SDS011;64200;55.426;37.758;2023-07-28T09:37:37;5.60;;;4.25;;
75616;SDS011;64200;55.426;37.758;2023-07-28T09:42:40;9.07;;;4.97;;
75616;SDS011;64200;55.426;37.758;2023-07-28T09:47:42;10.20;;;5.35;;
75616;SDS011;64200;55.426;37.758;2023-07-28T09:52:49;8.73;;;4.85;;
75616;SDS011;64200;55.426;37.758;2023-07-28T09:57:54;8.93;;;5.03;;
75616;SDS011;64200;55.426;37.758;2023-07-28T10:02:55;11.77;;;7.00;;
75616;SDS011;64200;55.426;37.758;2023-07-28T10:07:56;8.70;;;5.15;;
75616;SDS011;64200;55.426;37.758;2023-07-28T10:12:57;6.10;;;4.93;;
75616;SDS011;64200;55.426;37.758;2023-07-28T10:17:59;8.00;;;5.00;;
75616;SDS011;64200;55.426;37.758;2023-07-28T10:23:13;6.80;;;5.07;;
75616;SDS011;64200;55.426;37.758;2023-07-28T10:28:35;7.10;;;4.95;;
75616;SDS011;64200;55.426;37.758;2023-07-28T10:33:44;8.43;;;6.60;;
75616;SDS011;64200;55.426;37.758;2023-07-28T10:38:44;10.70;;;6.82;;
75616;SDS011;64200;55.426;37.758;2023-07-28T10:43:45;12.50;;;6.28;;
75616;SDS011;64200;55.426;37.758;2023-07-28T10:48:47;10.77;;;5.70;;
75616;SDS011;64200;55.426;37.758;2023-07-28T10:53:49;10.20;;;6.15;;
75616;SDS011;64200;55.426;37.758;2023-07-28T10:59:00;8.73;;;5.05;;
75616;SDS011;64200;55.426;37.758;2023-07-28T11:04:11;10.82;;;6.00;;
75616;SDS011;64200;55.426;37.758;2023-07-28T11:09:14;12.55;;;6.57;;
75616;SDS011;64200;55.426;37.758;2023-07-28T11:14:17;7.22;;;5.78;;
75616;SDS011;64200;55.426;37.758;2023-07-28T11:19:17;10.80;;;5.72;;
75616;SDS011;64200;55.426;37.758;2023-07-28T11:24:24;6.60;;;4.60;;
75616;SDS011;64200;55.426;37.758;2023-07-28T11:29:26;8.48;;;5.25;;
75616;SDS011;64200;55.426;37.758;2023-07-28T11:34:28;8.32;;;4.95;;
75616;SDS011;64200;55.426;37.758;2023-07-28T11:39:33;9.80;;;5.25;;
75616;SDS011;64200;55.426;37.758;2023-07-28T11:44:34;8.07;;;5.78;;
75616;SDS011;64200;55.426;37.758;2023-07-28T11:49:36;8.43;;;5.55;;
75616;SDS011;64200;55.426;37.758;2023-07-28T11:54:47;8.65;;;4.63;;
75616;SDS011;64200;55.426;37.758;2023-07-28T11:59:47;19.80;;;12.88;;
75616;SDS011;64200;55.426;37.758;2023-07-28T12:04:48;13.10;;;7.18;;
75616;SDS011;64200;55.426;37.758;2023-07-28T12:09:51;22.52;;;19.27;;
75616;SDS011;64200;55.426;37.758;2023-07-28T12:14:52;14.63;;;12.18;;
75616;SDS011;64200;55.426;37.758;2023-07-28T12:20:00;18.02;;;12.23;;
75616;SDS011;64200;55.426;37.758;2023-07-28T12:25:14;19.15;;;14.57;;
75616;SDS011;64200;55.426;37.758;2023-07-28T12:30:15;12.70;;;9.68;;
75616;SDS011;64200;55.426;37.758;2023-07-28T12:35:16;12.98;;;8.68;;
75616;SDS011;64200;55.426;37.758;2023-07-28T12:40:17;15.73;;;11.75;;
75616;SDS011;64200;55.426;37.758;2023-07-28T12:45:19;13.48;;;9.68;;
75616;SDS011;64200;55.426;37.758;2023-07-28T12:50:20;20.23;;;11.70;;
75616;SDS011;64200;55.426;37.758;2023-07-28T12:55:21;11.68;;;8.80;;
75616;SDS011;64200;55.426;37.758;2023-07-28T13:00:21;11.15;;;8.00;;
75616;SDS011;64200;55.426;37.758;2023-07-28T13:05:22;14.20;;;9.95;;
75616;SDS011;64200;55.426;37.758;2023-07-28T13:10:23;17.05;;;14.82;;
75616;SDS011;64200;55.426;37.758;2023-07-28T13:15:23;14.55;;;9.57;;
75616;SDS011;64200;55.426;37.758;2023-07-28T13:20:24;12.90;;;5.80;;
75616;SDS011;64200;55.426;37.758;2023-07-28T13:25:24;5.68;;;4.35;;
75616;SDS011;64200;55.426;37.758;2023-07-28T13:30:25;6.50;;;3.70;;
75616;SDS011;64200;55.426;37.758;2023-07-28T13:35:25;4.68;;;2.83;;
75616;SDS011;64200;55.426;37.758;2023-07-28T13:40:26;4.30;;;3.23;;
75616;SDS011;64200;55.426;37.758;2023-07-28T13:45:26;5.57;;;3.53;;
75616;SDS011;64200;55.426;37.758;2023-07-28T13:50:27;3.53;;;2.75;;
75616;SDS011;64200;55.426;37.758;2023-07-28T13:55:27;3.38;;;2.40;;
75616;SDS011;64200;55.426;37.758;2023-07-28T14:00:28;4.50;;;3.08;;
75616;SDS011;64200;55.426;37.758;2023-07-28T14:05:29;3.28;;;2.53;;
75616;SDS011;64200;55.426;37.758;2023-07-28T14:10:29;5.97;;;2.70;;
75616;SDS011;64200;55.426;37.758;2023-07-28T14:15:32;3.13;;;1.50;;
75616;SDS011;64200;55.426;37.758;2023-07-28T14:20:33;1.85;;;1.42;;
75616;SDS011;64200;55.426;37.758;2023-07-28T14:25:34;2.58;;;1.80;;
75616;SDS011;64200;55.426;37.758;2023-07-28T14:30:34;3.17;;;1.63;;
75616;SDS011;64200;55.426;37.758;2023-07-28T14:35:35;2.27;;;1.70;;
75616;SDS011;64200;55.426;37.758;2023-07-28T14:40:36;2.83;;;1.83;;
75616;SDS011;64200;55.426;37.758;2023-07-28T14:45:37;3.50;;;1.40;;
75616;SDS011;64200;55.426;37.758;2023-07-28T14:50:37;2.45;;;1.70;;
75616;SDS011;64200;55.426;37.758;2023-07-28T14:55:38;3.40;;;1.88;;
75616;SDS011;64200;55.426;37.758;2023-07-28T15:00:39;8.73;;;3.85;;
75616;SDS011;64200;55.426;37.758;2023-07-28T15:05:39;4.20;;;2.17;;
75616;SDS011;64200;55.426;37.758;2023-07-28T15:10:41;3.50;;;2.45;;
75616;SDS011;64200;55.426;37.758;2023-07-28T15:15:41;4.65;;;2.42;;
75616;SDS011;64200;55.426;37.758;2023-07-28T15:20:42;5.93;;;3.22;;
75616;SDS011;64200;55.426;37.758;2023-07-28T15:25:43;5.10;;;2.85;;
75616;SDS011;64200;55.426;37.758;2023-07-28T15:30:45;9.00;;;4.43;;
75616;SDS011;64200;55.426;37.758;2023-07-28T15:35:51;6.63;;;3.30;;
75616;SDS011;64200;55.426;37.758;2023-07-28T15:40:51;13.77;;;3.78;;
75616;SDS011;64200;55.426;37.758;2023-07-28T15:45:57;5.72;;;2.50;;
75616;SDS011;64200;55.426;37.758;2023-07-28T15:50:57;4.28;;;2.35;;
75616;SDS011;64200;55.426;37.758;2023-07-28T15:55:58;4.97;;;3.50;;
75616;SDS011;64200;55.426;37.758;2023-07-28T16:00:59;23.92;;;7.43;;
75616;SDS011;64200;55.426;37.758;2023-07-28T16:05:59;4.88;;;2.85;;
75616;SDS011;64200;55.426;37.758;2023-07-28T16:11:00;6.18;;;3.63;;
75616;SDS011;64200;55.426;37.758;2023-07-28T16:16:00;3.93;;;3.10;;
75616;SDS011;64200;55.426;37.758;2023-07-28T16:21:01;3.25;;;2.20;;
75616;SDS011;64200;55.426;37.758;2023-07-28T16:26:02;3.47;;;2.65;;
75616;SDS011;64200;55.426;37.758;2023-07-28T16:31:03;6.05;;;3.28;;
75616;SDS011;64200;55.426;37.758;2023-07-28T16:36:04;7.70;;;3.53;;
75616;SDS011;64200;55.426;37.758;2023-07-28T16:41:04;6.15;;;3.20;;
75616;SDS011;64200;55.426;37.758;2023-07-28T16:46:05;4.72;;;3.10;;
75616;SDS011;64200;55.426;37.758;2023-07-28T16:51:06;5.03;;;2.90;;
75616;SDS011;64200;55.426;37.758;2023-07-28T16:56:07;6.03;;;3.08;;
75616;SDS011;64200;55.426;37.758;2023-07-28T17:01:07;5.55;;;2.90;;
75616;SDS011;64200;55.426;37.758;2023-07-28T17:06:08;8.17;;;3.50;;
75616;SDS011;64200;55.426;37.758;2023-07-28T17:11:09;8.90;;;3.25;;
75616;SDS011;64200;55.426;37.758;2023-07-28T17:16:10;9.82;;;4.72;;
75616;SDS011;64200;55.426;37.758;2023-07-28T17:21:10;5.20;;;3.70;;
75616;SDS011;64200;55.426;37.758;2023-07-28T17:26:11;8.23;;;4.68;;
75616;SDS011;64200;55.426;37.758;2023-07-28T17:31:11;10.70;;;4.10;;
75616;SDS011;64200;55.426;37.758;2023-07-28T17:36:12;11.02;;;4.80;;
75616;SDS011;64200;55.426;37.758;2023-07-28T17:41:12;10.05;;;6.28;;
75616;SDS011;64200;55.426;37.758;2023-07-28T17:46:13;8.55;;;3.00;;
75616;SDS011;64200;55.426;37.758;2023-07-28T17:51:14;3.15;;;2.10;;
75616;SDS011;64200;55.426;37.758;2023-07-28T17:56:14;4.32;;;2.13;;
75616;SDS011;64200;55.426;37.758;2023-07-28T18:01:18;5.93;;;2.50;;
75616;SDS011;64200;55.426;37.758;2023-07-28T18:06:18;4.30;;;1.95;;
75616;SDS011;64200;55.426;37.758;2023-07-28T18:11:19;16.63;;;4.32;;
75616;SDS011;64200;55.426;37.758;2023-07-28T18:16:19;4.78;;;2.40;;
75616;SDS011;64200;55.426;37.758;2023-07-28T18:21:24;3.55;;;1.75;;
75616;SDS011;64200;55.426;37.758;2023-07-28T18:26:25;2.67;;;1.42;;
75616;SDS011;64200;55.426;37.758;2023-07-28T18:31:25;1.80;;;1.70;;
75616;SDS011;64200;55.426;37.758;2023-07-28T18:36:26;5.47;;;2.15;;
75616;SDS011;64200;55.426;37.758;2023-07-28T18:41:26;5.40;;;2.58;;
75616;SDS011;64200;55.426;37.758;2023-07-28T18:46:27;4.27;;;2.27;;
75616;SDS011;64200;55.426;37.758;2023-07-28T18:51:28;4.95;;;2.15;;
75616;SDS011;64200;55.426;37.758;2023-07-28T18:56:29;3.47;;;1.73;;
75616;SDS011;64200;55.426;37.758;2023-07-28T19:01:30;2.80;;;1.80;;
75616;SDS011;64200;55.426;37.758;2023-07-28T19:06:30;4.33;;;2.10;;
75616;SDS011;64200;55.426;37.758;2023-07-28T19:11:31;3.42;;;2.00;;
75616;SDS011;64200;55.426;37.758;2023-07-28T19:16:31;3.55;;;1.90;;
75616;SDS011;64200;55.426;37.758;2023-07-28T19:21:32;6.95;;;2.85;;
75616;SDS011;64200;55.426;37.758;2023-07-28T19:26:32;4.70;;;1.70;;
75616;SDS011;64200;55.426;37.758;2023-07-28T19:31:33;4.40;;;2.40;;
75616;SDS011;64200;55.426;37.758;2023-07-28T19:36:34;2.50;;;1.92;;
75616;SDS011;64200;55.426;37.758;2023-07-28T19:41:35;9.30;;;2.03;;
75616;SDS011;64200;55.426;37.758;2023-07-28T19:46:35;4.30;;;2.90;;
75616;SDS011;64200;55.426;37.758;2023-07-28T19:51:36;4.18;;;2.30;;
75616;SDS011;64200;55.426;37.758;2023-07-28T19:56:37;7.57;;;3.17;;
75616;SDS011;64200;55.426;37.758;2023-07-28T20:01:37;17.02;;;6.70;;
75616;SDS011;64200;55.426;37.758;2023-07-28T20:06:38;3.50;;;2.28;;
75616;SDS011;64200;55.426;37.758;2023-07-28T20:11:39;4.07;;;2.13;;
75616;SDS011;64200;55.426;37.758;2023-07-28T20:16:39;6.28;;;2.00;;
75616;SDS011;64200;55.426;37.758;2023-07-28T20:21:41;4.47;;;2.42;;
75616;SDS011;64200;55.426;37.758;2023-07-28T20:26:42;3.13;;;2.50;;
75616;SDS011;64200;55.426;37.758;2023-07-28T20:31:42;5.35;;;4.07;;
75616;SDS011;64200;55.426;37.758;2023-07-28T20:36:43;3.30;;;2.50;;
75616;SDS011;64200;55.426;37.758;2023-07-28T20:41:43;3.22;;;2.33;;
75616;SDS011;64200;55.426;37.758;2023-07-28T20:46:44;4.70;;;1.70;;
75616;SDS011;64200;55.426;37.758;2023-07-28T20:51:45;4.68;;;2.75;;
75616;SDS011;64200;55.426;37.758;2023-07-28T20:56:48;7.97;;;3.95;;
75616;SDS011;64200;55.426;37.758;2023-07-28T21:01:49;2.83;;;2.22;;
75616;SDS011;64200;55.426;37.758;2023-07-28T21:06:50;4.13;;;1.95;;
75616;SDS011;64200;55.426;37.758;2023-07-28T21:11:50;4.40;;;1.92;;
75616;SDS011;64200;55.426;37.758;2023-07-28T21:16:51;4.28;;;1.85;;
75616;SDS011;64200;55.426;37.758;2023-07-28T21:21:52;4.07;;;1.90;;
75616;SDS011;64200;55.426;37.758;2023-07-28T21:26:55;5.03;;;2.40;;
75616;SDS011;64200;55.426;37.758;2023-07-28T21:31:55;3.90;;;2.60;;
75616;SDS011;64200;55.426;37.758;2023-07-28T21:36:56;3.33;;;2.55;;
75616;SDS011;64200;55.426;37.758;2023-07-28T21:41:57;5.80;;;2.83;;
75616;SDS011;64200;55.426;37.758;2023-07-28T21:46:58;4.88;;;2.95;;
75616;SDS011;64200;55.426;37.758;2023-07-28T21:51:58;3.50;;;2.65;;
75616;SDS011;64200;55.426;37.758;2023-07-28T21:56:59;4.90;;;2.72;;
75616;SDS011;64200;55.426;37.758;2023-07-28T22:02:00;6.28;;;3.88;;
75616;SDS011;64200;55.426;37.758;2023-07-28T22:07:01;4.10;;;3.20;;
75616;SDS011;64200;55.426;37.758;2023-07-28T22:12:02;5.15;;;3.72;;
75616;SDS011;64200;55.426;37.758;2023-07-28T22:17:02;4.88;;;3.40;;
75616;SDS011;64200;55.426;37.758;2023-07-28T22:22:03;4.97;;;3.17;;
75616;SDS011;64200;55.426;37.758;2023-07-28T22:27:04;3.17;;;2.40;;
75616;SDS011;64200;55.426;37.758;2023-07-28T22:32:05;2.28;;;1.80;;
75616;SDS011;64200;55.426;37.758;2023-07-28T22:37:06;2.28;;;1.88;;
75616;SDS011;64200;55.426;37.758;2023-07-28T22:42:07;4.68;;;1.83;;
75616;SDS011;64200;55.426;37.758;2023-07-28T22:47:08;2.88;;;1.73;;
75616;SDS011;64200;55.426;37.758;2023-07-28T22:52:08;2.55;;;2.22;;
75616;SDS011;64200;55.426;37.758;2023-07-28T22:57:09;3.38;;;2.13;;
75616;SDS011;64200;55.426;37.758;2023-07-28T23:02:09;4.53;;;2.23;;
75616;SDS011;64200;55.426;37.758;2023-07-28T23:07:10;2.60;;;2.33;;
75616;SDS011;64200;55.426;37.758;2023-07-28T23:12:13;8.85;;;2.80;;
75616;SDS011;64200;55.426;37.758;2023-07-28T23:17:14;17.60;;;3.70;;
75616;SDS011;64200;55.426;37.758;2023-07-28T23:22:16;9.50;;;3.25;;
75616;SDS011;64200;55.426;37.758;2023-07-28T23:27:17;10.18;;;3.80;;
75616;SDS011;64200;55.426;37.758;2023-07-28T23:32:21;7.35;;;3.28;;
75616;SDS011;64200;55.426;37.758;2023-07-28T23:37:22;7.67;;;3.00;;
75616;SDS011;64200;55.426;37.758;2023-07-28T23:42:22;5.40;;;3.20;;
75616;SDS011;64200;55.426;37.758;2023-07-28T23:47:23;5.97;;;3.58;;
75616;SDS011;64200;55.426;37.758;2023-07-28T23:52:24;5.63;;;3.92;;
75616;SDS011;64200;55.426;37.758;2023-07-28T23:57:24;5.80;;;3.63;;
